Time;durP1;ratioP1;P1;durP2;ratioP2;P2;SDS_P1;SDS_P2;PMS_P1;PMS_P2;Temp;Humidity;BMP_temperature;BMP_pressure;BME280_temperature;BME280_humidity;BME280_pressure;Samples;Min_cycle;Max_cycle;Signal;HPM_P1;HPM_P2
2022/09/08 00:02:37;;;;;;;;;;;16.80;99.90;;;;;;5084094;28;19913;-58
2022/09/08 00:05:20;;;;;;;;;;;16.80;99.90;;;;;;5125583;27;19916;-58
2022/09/08 00:08:01;;;;;;;;;;;16.70;99.90;;;;;;5121896;27;19925;-58
2022/09/08 00:10:41;;;;;;;;;;;16.70;99.90;;;;;;5104167;27;19916;-57
2022/09/08 00:13:21;;;;;;;;;;;16.70;99.90;;;;;;5104520;27;20425;-57
2022/09/08 00:16:02;;;;;;;;;;;16.70;99.90;;;;;;5124810;27;19911;-58
2022/09/08 00:18:42;;;;;;;;;;;16.70;99.90;;;;;;5104037;27;19916;-58
2022/09/08 00:21:22;;;;;;;;;;;16.70;99.90;;;;;;5104556;27;19969;-58
2022/09/08 00:24:03;;;;;;;;;;;16.70;99.90;;;;;;5105081;27;19930;-58
2022/09/08 00:26:43;;;;;;;;;;;16.70;99.90;;;;;;5104476;27;19946;-58
2022/09/08 00:29:23;;;;;;;;;;;16.70;99.90;;;;;;5104399;27;19945;-58
2022/09/08 00:32:04;;;;;;;;;;;16.70;99.90;;;;;;5125123;27;20130;-58
2022/09/08 00:34:44;;;;;;;;;;;16.70;99.90;;;;;;5104580;27;19926;-58
2022/09/08 00:37:26;;;;;;;;;;;16.60;99.90;;;;;;5104185;27;19934;-58
2022/09/08 00:40:08;;;;;;;;;;;16.60;99.90;;;;;;5084647;27;19954;-58
2022/09/08 00:42:48;;;;;;;;;;;16.60;99.90;;;;;;5125418;27;19916;-58
2022/09/08 00:45:31;;;;;;;;;;;16.50;99.90;;;;;;5104766;27;19926;-58
2022/09/08 00:48:15;;;;;;;;;;;16.50;99.90;;;;;;5100440;27;19916;-58
2022/09/08 00:50:58;;;;;;;;;;;16.50;99.90;;;;;;5104068;27;19926;-58
2022/09/08 00:53:39;;;;;;;;;;;16.50;99.90;;;;;;5105114;27;19926;-58
2022/09/08 00:56:22;;;;;;;;;;;16.50;99.90;;;;;;5104900;27;20438;-58
2022/09/08 00:59:03;;;;;;;;;;;16.50;99.90;;;;;;5124964;27;19912;-58
2022/09/08 01:01:43;;;;;;;;;;;16.50;99.90;;;;;;5104656;27;19926;-58
2022/09/08 01:04:23;;;;;;;;;;;16.50;99.90;;;;;;5105462;27;19931;-58
2022/09/08 01:13:06;;;;;;;;;;;16.50;99.90;;;;;;5105057;27;20316;-58
2022/09/08 01:15:47;;;;;;;;;;;16.50;99.90;;;;;;5124835;27;19918;-58
2022/09/08 01:18:27;;;;;;;;;;;16.50;99.90;;;;;;5118404;27;19916;-58
2022/09/08 01:21:13;;;;;;;;;;;16.50;99.90;;;;;;5103865;27;19912;-58
2022/09/08 01:24:08;;;;;;;;;;;16.50;99.90;;;;;;5105709;27;19953;-58
2022/09/08 01:26:51;;;;;;;;;;;16.50;99.90;;;;;;5105282;27;19912;-58
2022/09/08 01:29:32;;;;;;;;;;;16.60;99.90;;;;;;5109375;27;19912;-58
2022/09/08 01:32:12;;;;;;;;;;;16.70;99.90;;;;;;5103465;27;19950;-58
2022/09/08 01:34:52;;;;;;;;;;;16.90;99.90;;;;;;5103683;27;19969;-58
2022/09/08 01:37:33;;;;;;;;;;;16.90;99.90;;;;;;5102267;27;19926;-58
2022/09/08 01:40:12;;;;;;;;;;;16.00;99.90;;;;;;5082798;28;19912;-58
2022/09/08 01:42:52;;;;;;;;;;;15.30;99.90;;;;;;5124447;27;19912;-58
2022/09/08 01:45:32;;;;;;;;;;;15.20;99.90;;;;;;5115899;27;19911;-58
2022/09/08 01:48:12;;;;;;;;;;;15.30;99.90;;;;;;5103591;27;19926;-58
2022/09/08 01:50:52;;;;;;;;;;;15.30;99.90;;;;;;5104265;27;19926;-58
2022/09/08 01:53:32;;;;;;;;;;;15.40;99.90;;;;;;5103812;27;20423;-58
2022/09/08 01:56:11;;;;;;;;;;;15.40;99.90;;;;;;5104375;27;19942;-58
2022/09/08 01:58:51;;;;;;;;;;;15.40;99.90;;;;;;5087114;28;20024;-58
2022/09/08 02:01:31;;;;;;;;;;;15.40;99.90;;;;;;5104321;27;20431;-58
2022/09/08 02:04:11;;;;;;;;;;;15.50;99.90;;;;;;5104723;27;19926;-58
2022/09/08 02:06:51;;;;;;;;;;;15.50;99.90;;;;;;5105036;27;19916;-58
2022/09/08 02:09:32;;;;;;;;;;;15.50;99.90;;;;;;5112811;27;19916;-57
2022/09/08 02:12:12;;;;;;;;;;;15.50;99.90;;;;;;5124604;27;19912;-58
2022/09/08 02:14:52;;;;;;;;;;;15.50;99.90;;;;;;5123640;27;19916;-58
2022/09/08 02:17:33;;;;;;;;;;;15.60;99.90;;;;;;5122992;27;20193;-57
2022/09/08 02:20:15;;;;;;;;;;;15.50;99.90;;;;;;5138660;22;19924;-54
2022/09/08 02:22:54;;;;;;;;;;;15.60;99.90;;;;;;5080001;28;19917;-54
2022/09/08 02:25:34;;;;;;;;;;;15.50;99.90;;;;;;5083388;28;19913;-54
2022/09/08 02:28:15;;;;;;;;;;;15.50;99.90;;;;;;5099882;27;20286;-54
2022/09/08 02:30:58;;;;;;;;;;;15.50;99.90;;;;;;5078760;28;20188;-54
2022/09/08 02:33:39;;;;;;;;;;;15.50;99.90;;;;;;5120173;27;19915;-53
2022/09/08 02:36:20;;;;;;;;;;;15.50;99.90;;;;;;5072768;28;20316;-53
2022/09/08 02:39:00;;;;;;;;;;;15.50;99.90;;;;;;5098002;27;19917;-54
2022/09/08 02:41:40;;;;;;;;;;;15.50;99.90;;;;;;5120240;27;19916;-53
2022/09/08 02:44:21;;;;;;;;;;;15.40;99.90;;;;;;5096783;27;20258;-54
2022/09/08 02:47:01;;;;;;;;;;;15.50;99.90;;;;;;5101014;27;20435;-54
2022/09/08 02:49:41;;;;;;;;;;;15.50;99.90;;;;;;5097135;27;19917;-53
2022/09/08 02:52:21;;;;;;;;;;;15.50;99.90;;;;;;5104688;27;19938;-54
2022/09/08 02:55:00;;;;;;;;;;;15.50;99.90;;;;;;5083632;28;19912;-53
2022/09/08 02:57:40;;;;;;;;;;;15.50;99.90;;;;;;5077562;28;19916;-54
2022/09/08 03:00:20;;;;;;;;;;;15.40;99.90;;;;;;5092502;27;19920;-54
2022/09/08 03:03:02;;;;;;;;;;;15.40;99.90;;;;;;5104039;27;19912;-54
2022/09/08 03:05:43;;;;;;;;;;;15.50;99.90;;;;;;5089117;27;20134;-54
2022/09/08 03:08:24;;;;;;;;;;;15.50;99.90;;;;;;5101749;27;19913;-54
2022/09/08 03:11:04;;;;;;;;;;;15.50;99.90;;;;;;5075402;28;19975;-54
2022/09/08 03:13:44;;;;;;;;;;;15.50;99.90;;;;;;5098074;27;20415;-54
2022/09/08 03:16:24;;;;;;;;;;;15.50;99.90;;;;;;5103712;27;19926;-53
2022/09/08 03:19:05;;;;;;;;;;;15.60;99.90;;;;;;5096956;27;20303;-53
2022/09/08 03:21:45;;;;;;;;;;;15.60;99.90;;;;;;5093646;27;21502;-54
2022/09/08 03:24:25;;;;;;;;;;;15.60;99.90;;;;;;5104248;27;20426;-53
2022/09/08 03:27:05;;;;;;;;;;;15.60;99.90;;;;;;5103064;27;19930;-54
2022/09/08 03:29:44;;;;;;;;;;;15.60;99.90;;;;;;5083972;27;19931;-53
2022/09/08 03:32:24;;;;;;;;;;;15.50;99.90;;;;;;5094206;27;19950;-54
2022/09/08 03:35:05;;;;;;;;;;;15.50;99.90;;;;;;5071818;28;19913;-53
2022/09/08 03:37:46;;;;;;;;;;;15.60;99.90;;;;;;5100386;27;19924;-53
2022/09/08 03:40:25;;;;;;;;;;;15.60;99.90;;;;;;5094223;27;19917;-53
2022/09/08 03:43:06;;;;;;;;;;;15.60;99.90;;;;;;5104364;27;19954;-54
2022/09/08 03:45:47;;;;;;;;;;;15.60;99.90;;;;;;5104588;27;19912;-54
2022/09/08 03:48:26;;;;;;;;;;;15.60;99.90;;;;;;5101818;27;20074;-53
2022/09/08 03:51:10;;;;;;;;;;;15.60;99.90;;;;;;5104038;27;19953;-53
2022/09/08 03:53:51;;;;;;;;;;;15.60;99.90;;;;;;5071087;28;20497;-54
2022/09/08 03:56:31;;;;;;;;;;;15.60;99.90;;;;;;5093380;27;19930;-53
2022/09/08 03:59:11;;;;;;;;;;;15.70;99.90;;;;;;5099493;27;19930;-53
2022/09/08 04:01:51;;;;;;;;;;;15.70;99.90;;;;;;5101144;27;20219;-53
2022/09/08 04:04:30;;;;;;;;;;;15.80;99.90;;;;;;5082329;28;19912;-54
2022/09/08 04:07:11;;;;;;;;;;;15.90;99.90;;;;;;5103107;27;19969;-53
2022/09/08 04:09:50;;;;;;;;;;;15.90;99.90;;;;;;5109625;27;20319;-54
2022/09/08 04:12:30;;;;;;;;;;;15.90;99.90;;;;;;5082840;28;19912;-53
2022/09/08 04:15:10;;;;;;;;;;;15.80;99.90;;;;;;5099674;27;19935;-53
2022/09/08 04:17:49;;;;;;;;;;;15.80;99.90;;;;;;5077396;28;19920;-53
2022/09/08 04:20:29;;;;;;;;;;;15.80;99.90;;;;;;5098922;27;20309;-53
2022/09/08 04:23:09;;;;;;;;;;;15.80;99.90;;;;;;5083579;28;19914;-54
2022/09/08 04:25:56;;;;;;;;;;;15.80;99.90;;;;;;5103944;27;19912;-54
2022/09/08 04:28:37;;;;;;;;;;;15.80;99.90;;;;;;5077844;28;19921;-53
2022/09/08 04:31:17;;;;;;;;;;;15.80;99.90;;;;;;5101150;27;19916;-54
2022/09/08 04:33:57;;;;;;;;;;;15.80;99.90;;;;;;5079940;28;19917;-53
2022/09/08 04:36:36;;;;;;;;;;;15.80;99.90;;;;;;5090602;27;19965;-53
2022/09/08 04:39:16;;;;;;;;;;;15.70;99.90;;;;;;5121495;27;19920;-54
2022/09/08 04:41:56;;;;;;;;;;;15.70;99.90;;;;;;5082977;28;19917;-53
2022/09/08 04:44:36;;;;;;;;;;;15.70;99.90;;;;;;5110660;27;19916;-53
2022/09/08 04:47:16;;;;;;;;;;;15.60;99.90;;;;;;5142189;27;19919;-55
2022/09/08 04:49:55;;;;;;;;;;;15.60;99.90;;;;;;5068665;28;19916;-53
2022/09/08 04:52:35;;;;;;;;;;;15.60;99.90;;;;;;5081878;28;20690;-54
2022/09/08 04:55:15;;;;;;;;;;;15.60;99.90;;;;;;5104545;27;19917;-53
2022/09/08 04:57:55;;;;;;;;;;;15.60;99.90;;;;;;5071459;28;20124;-54
2022/09/08 05:00:37;;;;;;;;;;;15.50;99.90;;;;;;5098298;27;20323;-54
2022/09/08 05:03:18;;;;;;;;;;;15.50;99.90;;;;;;5080667;28;19916;-53
2022/09/08 05:06:02;;;;;;;;;;;15.50;99.90;;;;;;5123550;27;19912;-53
2022/09/08 05:08:43;;;;;;;;;;;15.50;99.90;;;;;;5121871;27;20357;-53
2022/09/08 05:11:24;;;;;;;;;;;15.50;99.90;;;;;;5101911;27;19927;-54
2022/09/08 05:14:06;;;;;;;;;;;15.50;99.90;;;;;;5101490;27;20366;-54
2022/09/08 05:16:46;;;;;;;;;;;15.50;99.90;;;;;;5122023;27;19916;-53
2022/09/08 05:19:26;;;;;;;;;;;15.50;99.90;;;;;;5094738;27;19959;-53
2022/09/08 05:22:06;;;;;;;;;;;15.60;99.90;;;;;;5083502;27;20279;-53
2022/09/08 05:24:46;;;;;;;;;;;15.60;99.90;;;;;;5081479;28;19920;-53
2022/09/08 05:27:26;;;;;;;;;;;15.60;99.90;;;;;;5084038;27;19921;-53
2022/09/08 05:30:06;;;;;;;;;;;15.60;99.90;;;;;;5094499;27;19930;-53
2022/09/08 05:32:47;;;;;;;;;;;15.70;99.90;;;;;;5100495;27;20427;-53
2022/09/08 05:35:27;;;;;;;;;;;15.70;99.90;;;;;;5101759;27;19930;-53
2022/09/08 05:38:09;;;;;;;;;;;15.70;99.90;;;;;;5101645;27;19981;-54
2022/09/08 05:40:50;;;;;;;;;;;15.70;99.90;;;;;;5096766;27;19938;-54
2022/09/08 05:43:29;;;;;;;;;;;15.70;99.90;;;;;;5103166;27;19912;-54
2022/09/08 05:46:10;;;;;;;;;;;15.80;99.90;;;;;;5103771;27;19946;-53
2022/09/08 05:48:52;;;;;;;;;;;15.80;99.90;;;;;;5099103;27;20386;-53
2022/09/08 05:51:32;;;;;;;;;;;15.80;99.90;;;;;;5084445;27;19973;-54
2022/09/08 05:54:12;;;;;;;;;;;15.80;99.90;;;;;;5100457;27;20454;-54
2022/09/08 05:56:52;;;;;;;;;;;15.90;99.90;;;;;;5099073;27;19934;-53
2022/09/08 05:59:32;;;;;;;;;;;15.90;99.90;;;;;;5123082;27;19918;-53
2022/09/08 06:02:12;;;;;;;;;;;15.80;99.90;;;;;;5079443;28;19916;-54
2022/09/08 06:04:51;;;;;;;;;;;15.80;99.90;;;;;;5098980;27;19970;-54
2022/09/08 06:07:33;;;;;;;;;;;15.80;99.90;;;;;;5110676;27;20353;-53
2022/09/08 06:10:13;;;;;;;;;;;15.80;99.90;;;;;;5096328;27;19916;-53
2022/09/08 06:12:54;;;;;;;;;;;15.70;99.90;;;;;;5097437;27;19959;-53
2022/09/08 06:15:34;;;;;;;;;;;15.70;99.90;;;;;;5123568;27;19912;-53
2022/09/08 06:18:14;;;;;;;;;;;15.60;99.90;;;;;;5097318;27;19934;-54
2022/09/08 06:20:53;;;;;;;;;;;15.70;99.90;;;;;;5094998;27;19954;-53
2022/09/08 06:23:34;;;;;;;;;;;15.80;99.90;;;;;;5099646;27;19973;-53
2022/09/08 06:26:25;;;;;;;;;;;15.80;99.90;;;;;;5121096;27;20284;-54
2022/09/08 06:29:09;;;;;;;;;;;15.80;99.90;;;;;;5088683;27;19934;-54
2022/09/08 06:31:52;;;;;;;;;;;15.70;99.90;;;;;;5103878;27;19927;-54
2022/09/08 06:34:36;;;;;;;;;;;15.70;99.90;;;;;;5096551;27;20410;-53
2022/09/08 06:37:23;;;;;;;;;;;15.70;99.90;;;;;;5098716;27;19916;-53
2022/09/08 06:40:10;;;;;;;;;;;15.70;99.90;;;;;;5087035;27;19926;-54
2022/09/08 06:42:53;;;;;;;;;;;15.70;99.90;;;;;;5104690;27;19926;-53
2022/09/08 06:45:36;;;;;;;;;;;15.80;99.90;;;;;;5104096;27;19926;-54
2022/09/08 06:48:26;;;;;;;;;;;15.90;99.90;;;;;;5102462;27;20419;-53
2022/09/08 06:51:26;;;;;;;;;;;16.00;99.90;;;;;;5103719;27;20195;-53
2022/09/08 06:54:18;;;;;;;;;;;16.00;99.90;;;;;;5104436;27;19912;-53
2022/09/08 06:57:01;;;;;;;;;;;16.10;99.90;;;;;;5104892;27;19926;-54
2022/09/08 06:59:45;;;;;;;;;;;16.10;99.90;;;;;;5091730;27;19913;-53
2022/09/08 07:02:37;;;;;;;;;;;16.10;99.90;;;;;;5105107;27;19912;-53
2022/09/08 07:05:28;;;;;;;;;;;16.20;99.90;;;;;;5104993;27;20138;-54
2022/09/08 07:08:15;;;;;;;;;;;16.40;99.90;;;;;;5140281;27;19922;-53
2022/09/08 07:10:57;;;;;;;;;;;16.40;99.90;;;;;;5081401;28;19931;-53
2022/09/08 07:13:45;;;;;;;;;;;16.60;99.90;;;;;;5102179;27;19930;-54
2022/09/08 07:16:29;;;;;;;;;;;16.60;99.90;;;;;;5100013;27;19970;-53
2022/09/08 07:19:13;;;;;;;;;;;16.70;99.90;;;;;;5117889;27;19915;-54
2022/09/08 07:21:54;;;;;;;;;;;16.90;99.90;;;;;;5098807;27;20458;-54
2022/09/08 07:24:36;;;;;;;;;;;17.10;99.90;;;;;;5139210;27;20101;-54
2022/09/08 07:27:17;;;;;;;;;;;17.20;99.90;;;;;;5104572;27;19969;-53
2022/09/08 07:30:01;;;;;;;;;;;17.20;99.90;;;;;;5088864;27;20427;-54
2022/09/08 07:32:43;;;;;;;;;;;17.30;99.90;;;;;;5101571;27;20332;-54
2022/09/08 07:35:25;;;;;;;;;;;17.40;99.90;;;;;;5075403;28;19920;-53
2022/09/08 07:38:10;;;;;;;;;;;17.50;99.90;;;;;;5098899;27;19920;-53
2022/09/08 07:40:52;;;;;;;;;;;17.60;99.90;;;;;;5099041;27;19930;-53
2022/09/08 07:43:33;;;;;;;;;;;17.60;99.90;;;;;;5104433;27;19954;-53
2022/09/08 07:46:22;;;;;;;;;;;17.60;99.90;;;;;;5084489;28;20267;-54
2022/09/08 07:49:06;;;;;;;;;;;17.60;99.90;;;;;;5099732;27;19930;-54
2022/09/08 07:51:53;;;;;;;;;;;17.60;99.90;;;;;;5101742;27;19950;-53
2022/09/08 07:54:43;;;;;;;;;;;17.60;99.90;;;;;;5098749;27;19950;-53
2022/09/08 07:57:28;;;;;;;;;;;17.70;99.90;;;;;;5121893;27;19953;-53
2022/09/08 08:00:11;;;;;;;;;;;17.70;99.90;;;;;;5087381;27;20443;-53
2022/09/08 08:03:07;;;;;;;;;;;17.70;99.90;;;;;;5104916;27;20307;-53
2022/09/08 08:05:49;;;;;;;;;;;17.60;99.90;;;;;;5102924;27;19926;-53
2022/09/08 08:08:35;;;;;;;;;;;17.60;99.90;;;;;;5091004;27;19966;-53
2022/09/08 08:11:21;;;;;;;;;;;17.70;99.90;;;;;;5115477;27;19929;-53
2022/09/08 08:14:05;;;;;;;;;;;17.50;99.90;;;;;;5094111;27;20289;-53
2022/09/08 08:16:52;;;;;;;;;;;17.50;99.90;;;;;;5104396;27;19926;-54
2022/09/08 08:19:40;;;;;;;;;;;17.60;99.90;;;;;;5096809;27;19930;-53
2022/09/08 08:22:26;;;;;;;;;;;17.50;99.90;;;;;;5104667;27;19912;-54
2022/09/08 08:25:12;;;;;;;;;;;17.50;99.90;;;;;;5104294;27;20355;-54
2022/09/08 08:27:58;;;;;;;;;;;17.50;99.90;;;;;;5146695;27;19922;-54
2022/09/08 08:30:39;;;;;;;;;;;17.50;99.90;;;;;;5125030;27;20265;-53
2022/09/08 08:33:23;;;;;;;;;;;17.40;99.90;;;;;;5125690;27;20361;-54
2022/09/08 08:36:05;;;;;;;;;;;17.40;99.90;;;;;;5084593;28;19913;-52
2022/09/08 08:38:47;;;;;;;;;;;17.30;99.90;;;;;;5104676;27;19926;-53
2022/09/08 08:41:32;;;;;;;;;;;17.20;99.90;;;;;;5104780;27;20319;-53
2022/09/08 08:44:21;;;;;;;;;;;17.10;99.90;;;;;;5104807;27;19913;-54
2022/09/08 08:47:17;;;;;;;;;;;17.10;99.90;;;;;;5105272;27;19961;-52
2022/09/08 08:50:06;;;;;;;;;;;17.30;99.90;;;;;;5104326;27;20332;-53
2022/09/08 08:52:54;;;;;;;;;;;17.30;99.90;;;;;;5105092;27;19939;-54
2022/09/08 08:55:40;;;;;;;;;;;17.40;99.90;;;;;;5104548;27;19930;-52
2022/09/08 08:58:31;;;;;;;;;;;17.50;99.90;;;;;;5136882;27;19916;-54
2022/09/08 09:01:19;;;;;;;;;;;17.60;99.90;;;;;;5105314;27;19953;-53
2022/09/08 09:04:05;;;;;;;;;;;17.60;99.90;;;;;;5105218;27;19953;-53
2022/09/08 09:06:50;;;;;;;;;;;17.60;99.90;;;;;;5104197;27;19926;-53
2022/09/08 09:09:41;;;;;;;;;;;17.50;99.90;;;;;;5112189;27;19919;-53
2022/09/08 09:12:31;;;;;;;;;;;17.60;99.90;;;;;;5102792;27;19916;-55
2022/09/08 09:15:21;;;;;;;;;;;17.60;99.90;;;;;;5123925;27;20198;-54
2022/09/08 09:18:14;;;;;;;;;;;17.50;99.90;;;;;;5123558;27;19919;-54
2022/09/08 09:21:00;;;;;;;;;;;17.50;99.90;;;;;;5102813;27;19916;-53
2022/09/08 09:23:45;;;;;;;;;;;17.60;99.90;;;;;;5083053;28;19916;-52
2022/09/08 09:26:26;;;;;;;;;;;17.80;99.90;;;;;;5102959;27;20263;-53
2022/09/08 09:29:14;;;;;;;;;;;17.90;99.90;;;;;;5094827;27;19930;-54
2022/09/08 09:32:10;;;;;;;;;;;18.20;99.90;;;;;;5103756;27;19926;-53
2022/09/08 09:35:10;;;;;;;;;;;18.40;99.90;;;;;;5103497;27;20288;-52
2022/09/08 09:37:57;;;;;;;;;;;18.40;99.90;;;;;;5103732;27;19926;-51
2022/09/08 09:40:51;;;;;;;;;;;18.30;99.90;;;;;;5123023;27;19916;-52
2022/09/08 09:43:42;;;;;;;;;;;18.00;99.90;;;;;;5123982;27;20579;-52
2022/09/08 09:46:46;;;;;;;;;;;18.00;99.90;;;;;;5102928;27;20389;-52
2022/09/08 09:49:43;;;;;;;;;;;18.00;99.90;;;;;;5091399;27;19927;-54
2022/09/08 09:52:25;;;;;;;;;;;18.00;99.90;;;;;;5102873;27;19977;-54
2022/09/08 09:55:14;;;;;;;;;;;18.00;99.90;;;;;;5104613;27;19954;-53
2022/09/08 09:58:13;;;;;;;;;;;18.00;99.90;;;;;;5104113;27;19949;-54
2022/09/08 10:01:00;;;;;;;;;;;17.80;99.90;;;;;;5125076;27;19912;-51
2022/09/08 10:03:59;;;;;;;;;;;17.70;99.90;;;;;;5105017;27;20779;-51
2022/09/08 10:06:48;;;;;;;;;;;17.80;99.90;;;;;;5084053;28;19928;-53
2022/09/08 10:09:50;;;;;;;;;;;17.90;99.90;;;;;;5093191;27;19927;-52
2022/09/08 10:12:47;;;;;;;;;;;18.00;99.90;;;;;;5103709;27;20331;-53
2022/09/08 10:15:51;;;;;;;;;;;18.10;99.90;;;;;;5103484;27;19926;-53
2022/09/08 10:18:45;;;;;;;;;;;18.20;99.90;;;;;;5120464;27;19911;-52
2022/09/08 10:21:37;;;;;;;;;;;18.40;99.90;;;;;;5100593;27;19926;-55
2022/09/08 10:24:31;;;;;;;;;;;18.70;99.90;;;;;;5119798;27;19912;-53
2022/09/08 10:27:24;;;;;;;;;;;18.80;99.90;;;;;;5081004;28;20312;-52
2022/09/08 10:30:21;;;;;;;;;;;19.00;99.90;;;;;;5123687;27;20494;-55
2022/09/08 10:33:14;;;;;;;;;;;19.30;99.90;;;;;;5104459;27;19926;-52
2022/09/08 10:35:57;;;;;;;;;;;19.80;99.90;;;;;;5104051;27;20539;-51
2022/09/08 10:38:48;;;;;;;;;;;20.20;99.90;;;;;;5103559;27;19926;-52
2022/09/08 10:41:47;;;;;;;;;;;20.80;99.90;;;;;;5103867;27;19926;-53
2022/09/08 10:44:46;;;;;;;;;;;21.00;99.90;;;;;;5103792;27;20331;-53
2022/09/08 10:47:51;;;;;;;;;;;20.80;99.90;;;;;;5144829;27;19916;-54
2022/09/08 10:50:31;;;;;;;;;;;21.10;99.90;;;;;;5103500;27;19977;-52
2022/09/08 10:53:29;;;;;;;;;;;21.30;99.90;;;;;;5103903;27;20443;-53
2022/09/08 10:56:14;;;;;;;;;;;21.40;99.90;;;;;;5103272;27;19926;-52
2022/09/08 10:59:16;;;;;;;;;;;21.20;99.90;;;;;;5096367;27;19970;-52
2022/09/08 11:02:12;;;;;;;;;;;21.00;99.90;;;;;;5103932;27;20161;-55
2022/09/08 11:05:14;;;;;;;;;;;21.10;99.90;;;;;;5103752;27;20431;-55
2022/09/08 11:08:06;;;;;;;;;;;21.20;99.90;;;;;;5103519;27;19954;-54
2022/09/08 11:10:55;;;;;;;;;;;21.20;99.90;;;;;;5103216;27;19989;-53
2022/09/08 11:13:37;;;;;;;;;;;21.40;99.90;;;;;;5103960;27;20430;-53
2022/09/08 11:16:34;;;;;;;;;;;21.70;99.90;;;;;;5103834;27;19946;-52
2022/09/08 11:19:32;;;;;;;;;;;21.90;99.90;;;;;;5094674;27;19970;-53
2022/09/08 11:22:15;;;;;;;;;;;21.90;99.90;;;;;;5082772;28;20200;-53
2022/09/08 11:25:00;;;;;;;;;;;22.00;99.90;;;;;;5103717;27;20428;-55
2022/09/08 11:27:43;;;;;;;;;;;21.80;99.90;;;;;;5124276;27;19918;-53
2022/09/08 11:30:27;;;;;;;;;;;21.60;99.90;;;;;;5083259;28;19912;-54
2022/09/08 11:33:15;;;;;;;;;;;21.20;99.90;;;;;;5104236;27;19912;-54
2022/09/08 11:36:02;;;;;;;;;;;21.10;99.90;;;;;;5103566;27;19958;-52
2022/09/08 11:38:56;;;;;;;;;;;21.30;99.90;;;;;;5082768;28;19913;-53
2022/09/08 11:41:44;;;;;;;;;;;21.10;99.90;;;;;;5123889;27;19918;-53
2022/09/08 11:44:39;;;;;;;;;;;21.10;99.90;;;;;;5165770;27;19924;-53
2022/09/08 11:47:47;;;;;;;;;;;21.10;99.90;;;;;;5104705;27;20323;-52
2022/09/08 11:50:41;;;;;;;;;;;21.20;99.90;;;;;;5124354;27;20266;-52
2022/09/08 11:53:35;;;;;;;;;;;21.30;99.90;;;;;;5105030;27;19953;-53
2022/09/08 11:56:25;;;;;;;;;;;21.20;99.90;;;;;;5104667;27;20339;-53
2022/09/08 11:59:14;;;;;;;;;;;21.20;99.90;;;;;;5096689;27;19917;-54
2022/09/08 12:02:04;;;;;;;;;;;21.70;99.90;;;;;;5104682;27;19973;-54
2022/09/08 12:04:50;;;;;;;;;;;22.00;99.90;;;;;;5104893;27;19926;-54
2022/09/08 12:07:53;;;;;;;;;;;22.30;99.90;;;;;;5104233;27;20319;-53
2022/09/08 12:10:37;;;;;;;;;;;22.40;99.90;;;;;;5097921;27;19926;-54
2022/09/08 12:13:22;;;;;;;;;;;22.30;99.90;;;;;;5087353;27;19970;-54
2022/09/08 12:16:13;;;;;;;;;;;22.40;99.90;;;;;;5102886;27;19916;-53
2022/09/08 12:19:00;;;;;;;;;;;22.60;99.90;;;;;;5097749;27;20309;-54
2022/09/08 12:21:50;;;;;;;;;;;22.70;99.90;;;;;;5125181;27;20444;-54
2022/09/08 12:24:37;;;;;;;;;;;22.80;99.90;;;;;;5125683;27;19912;-53
2022/09/08 12:27:22;;;;;;;;;;;22.50;99.90;;;;;;5104773;27;19926;-53
2022/09/08 12:30:07;;;;;;;;;;;22.00;99.90;;;;;;5104651;27;19953;-53
2022/09/08 12:33:08;;;;;;;;;;;21.70;99.90;;;;;;5104876;27;20434;-53
2022/09/08 12:35:50;;;;;;;;;;;21.50;99.90;;;;;;5104652;27;19970;-52
2022/09/08 12:38:47;;;;;;;;;;;21.60;99.90;;;;;;5104520;27;20339;-52
2022/09/08 12:41:46;;;;;;;;;;;21.90;99.90;;;;;;5166580;27;20500;-52
2022/09/08 12:44:39;;;;;;;;;;;22.20;99.90;;;;;;5104417;27;19912;-54
2022/09/08 12:47:24;;;;;;;;;;;23.10;99.90;;;;;;5104720;27;19946;-53
2022/09/08 12:50:13;;;;;;;;;;;24.20;99.90;;;;;;5104448;27;19926;-54
2022/09/08 12:53:02;;;;;;;;;;;24.80;99.90;;;;;;5105045;27;19913;-54
2022/09/08 12:55:46;;;;;;;;;;;25.10;99.90;;;;;;5084089;28;20263;-53
2022/09/08 12:58:32;;;;;;;;;;;24.70;99.90;;;;;;5103291;27;19926;-56
2022/09/08 13:01:15;;;;;;;;;;;24.60;99.90;;;;;;5103102;27;19926;-54
2022/09/08 13:03:58;;;;;;;;;;;24.50;99.90;;;;;;5103704;27;19974;-54
2022/09/08 13:06:48;;;;;;;;;;;24.40;99.90;;;;;;5103176;27;19950;-54
2022/09/08 13:09:32;;;;;;;;;;;24.50;99.90;;;;;;5096719;27;19934;-53
2022/09/08 13:12:31;;;;;;;;;;;24.60;99.90;;;;;;5092027;27;19927;-54
2022/09/08 13:15:18;;;;;;;;;;;24.70;99.90;;;;;;5082412;28;19981;-53
2022/09/08 13:18:05;;;;;;;;;;;24.80;99.90;;;;;;5103077;27;19985;-55
2022/09/08 13:20:49;;;;;;;;;;;25.00;99.90;;;;;;5101844;27;19924;-53
2022/09/08 13:23:39;;;;;;;;;;;24.80;99.90;;;;;;5103291;27;19965;-53
2022/09/08 13:26:28;;;;;;;;;;;24.20;99.90;;;;;;5102737;27;19930;-53
2022/09/08 13:29:17;;;;;;;;;;;23.80;99.90;;;;;;5096480;27;19970;-52
2022/09/08 13:32:03;;;;;;;;;;;23.70;99.90;;;;;;5095713;27;19977;-53
2022/09/08 13:34:50;;;;;;;;;;;23.70;99.90;;;;;;5077809;27;19929;-53
2022/09/08 13:37:40;;;;;;;;;;;23.80;99.90;;;;;;5080652;28;20320;-53
2022/09/08 13:40:31;;;;;;;;;;;23.70;99.90;;;;;;5045321;28;20393;-53
2022/09/08 13:43:21;;;;;;;;;;;23.70;99.90;;;;;;5101724;27;19920;-53
2022/09/08 13:46:08;;;;;;;;;;;24.10;99.90;;;;;;5102793;27;19945;-53
2022/09/08 13:49:12;;;;;;;;;;;24.20;99.90;;;;;;5084775;27;19986;-54
2022/09/08 13:52:12;;;;;;;;;;;24.30;99.90;;;;;;5082905;28;19912;-53
2022/09/08 13:55:06;;;;;;;;;;;24.50;99.90;;;;;;5103110;27;19926;-52
2022/09/08 13:57:51;;;;;;;;;;;24.30;99.90;;;;;;5103467;27;19954;-54
2022/09/08 14:00:51;;;;;;;;;;;23.60;99.90;;;;;;5122362;27;19922;-52
2022/09/08 14:03:33;;;;;;;;;;;23.60;99.90;;;;;;5103539;27;20317;-52
2022/09/08 14:06:14;;;;;;;;;;;23.30;99.90;;;;;;5103556;27;19946;-52
2022/09/08 14:08:57;;;;;;;;;;;22.80;99.90;;;;;;5123212;27;20312;-53
2022/09/08 14:11:46;;;;;;;;;;;22.60;99.90;;;;;;5100922;27;19930;-52
2022/09/08 14:14:54;;;;;;;;;;;22.50;99.90;;;;;;5098760;27;19954;-53
2022/09/08 14:17:44;;;;;;;;;;;22.40;99.90;;;;;;5089081;27;19923;-53
2022/09/08 14:20:30;;;;;;;;;;;22.60;99.90;;;;;;5084337;27;19993;-54
2022/09/08 14:23:21;;;;;;;;;;;22.70;99.90;;;;;;5103883;27;19926;-53
2022/09/08 14:26:14;;;;;;;;;;;22.40;99.90;;;;;;5103737;27;20420;-52
2022/09/08 14:28:58;;;;;;;;;;;22.20;99.90;;;;;;5095219;27;19966;-52
2022/09/08 14:31:42;;;;;;;;;;;21.90;99.90;;;;;;5103784;27;19926;-52
2022/09/08 14:34:27;;;;;;;;;;;21.90;99.90;;;;;;5103875;27;19962;-53
2022/09/08 14:37:10;;;;;;;;;;;21.90;99.90;;;;;;5103005;27;19930;-53
2022/09/08 14:39:56;;;;;;;;;;;22.20;99.90;;;;;;5095131;27;19957;-53
2022/09/08 14:42:49;;;;;;;;;;;22.50;99.90;;;;;;5102752;27;19919;-53
2022/09/08 14:45:33;;;;;;;;;;;22.60;99.90;;;;;;5103218;27;20327;-52
2022/09/08 14:48:16;;;;;;;;;;;22.70;99.90;;;;;;5103595;27;19912;-52
2022/09/08 14:51:10;;;;;;;;;;;22.50;99.90;;;;;;5102746;27;19930;-53
2022/09/08 14:54:08;;;;;;;;;;;22.10;99.90;;;;;;5091815;27;19965;-53
2022/09/08 14:57:05;;;;;;;;;;;21.80;99.90;;;;;;5080991;28;20378;-54
2022/09/08 14:59:55;;;;;;;;;;;21.50;99.90;;;;;;5096217;27;20340;-54
2022/09/08 15:02:36;;;;;;;;;;;21.40;99.90;;;;;;5099865;27;19946;-55
2022/09/08 15:05:17;;;;;;;;;;;21.40;99.90;;;;;;5102736;27;19930;-54
2022/09/08 15:07:59;;;;;;;;;;;21.30;99.90;;;;;;5099615;27;20325;-52
2022/09/08 15:10:45;;;;;;;;;;;21.10;99.90;;;;;;5065946;28;19939;-54
2022/09/08 15:13:29;;;;;;;;;;;21.10;99.90;;;;;;5093423;27;20432;-54
2022/09/08 15:16:23;;;;;;;;;;;21.00;99.90;;;;;;5098335;27;20389;-53
2022/09/08 15:19:06;;;;;;;;;;;20.90;99.90;;;;;;5133580;27;19961;-52
2022/09/08 15:21:48;;;;;;;;;;;20.80;99.90;;;;;;5102540;27;19938;-54
2022/09/08 15:24:37;;;;;;;;;;;20.60;99.90;;;;;;5101736;27;19930;-54
2022/09/08 15:27:21;;;;;;;;;;;20.60;99.90;;;;;;5080929;28;19912;-54
2022/09/08 15:30:05;;;;;;;;;;;20.50;99.90;;;;;;5096704;27;19973;-53
2022/09/08 15:32:52;;;;;;;;;;;20.50;99.90;;;;;;5100611;27;19961;-52
2022/09/08 15:35:37;;;;;;;;;;;20.40;99.90;;;;;;5087612;27;20531;-52
2022/09/08 15:38:34;;;;;;;;;;;20.30;99.90;;;;;;5099129;27;19938;-52
2022/09/08 15:41:19;;;;;;;;;;;20.30;99.90;;;;;;5124329;27;19920;-54
2022/09/08 15:44:11;;;;;;;;;;;20.20;99.90;;;;;;5097900;27;19958;-55
2022/09/08 15:46:55;;;;;;;;;;;20.10;99.90;;;;;;5091092;27;19924;-53
2022/09/08 15:49:49;;;;;;;;;;;19.90;99.90;;;;;;5098075;27;19973;-53
2022/09/08 15:52:37;;;;;;;;;;;19.80;99.90;;;;;;5100531;27;19934;-52
2022/09/08 15:55:23;;;;;;;;;;;19.60;99.90;;;;;;5102628;27;19933;-53
2022/09/08 15:58:10;;;;;;;;;;;19.60;99.90;;;;;;5103266;27;20438;-53
2022/09/08 16:00:51;;;;;;;;;;;19.40;99.90;;;;;;5099161;27;19961;-53
2022/09/08 16:03:45;;;;;;;;;;;19.30;99.90;;;;;;5101144;27;19920;-55
2022/09/08 16:06:29;;;;;;;;;;;19.30;99.90;;;;;;5095990;27;20359;-53
2022/09/08 16:09:11;;;;;;;;;;;19.40;99.90;;;;;;5086311;27;19930;-53